sensor_id;sensor_type;location;lat;lon;timestamp;temperature;humidity
1644;DHT22;46825;51.99869940;8.49421771;2023-06-04T00:00:32;11.50;95.70
1644;DHT22;46825;51.99869940;8.49421771;2023-06-04T00:01:32;11.50;95.20
1644;DHT22;46825;51.99869940;8.49421771;2023-06-04T00:02:33;11.50;94.70
1644;DHT22;46825;51.99869940;8.49421771;2023-06-04T00:03:34;11.60;95.00
1644;DHT22;46825;51.99869940;8.49421771;2023-06-04T00:04:35;11.60;94.80
1644;DHT22;46825;51.99869940;8.49421771;2023-06-04T00:05:35;11.60;95.40
1644;DHT22;46825;51.99869940;8.49421771;2023-06-04T00:06:36;11.70;96.00
1644;DHT22;46825;51.99869940;8.49421771;2023-06-04T00:08:37;11.60;94.70
1644;DHT22;46825;51.99869940;8.49421771;2023-06-04T00:09:38;11.60;94.80
1644;DHT22;46825;51.99869940;8.49421771;2023-06-04T00:10:38;11.60;94.90
1644;DHT22;46825;51.99869940;8.49421771;2023-06-04T00:11:40;11.60;95.50
1644;DHT22;46825;51.99869940;8.49421771;2023-06-04T00:12:40;11.60;94.90
1644;DHT22;46825;51.99869940;8.49421771;2023-06-04T00:13:41;11.60;95.10
1644;DHT22;46825;51.99869940;8.49421771;2023-06-04T00:14:42;11.60;94.90
1644;DHT22;46825;51.99869940;8.49421771;2023-06-04T00:15:42;11.60;94.90
1644;DHT22;46825;51.99869940;8.49421771;2023-06-04T00:18:45;11.60;95.00
1644;DHT22;46825;51.99869940;8.49421771;2023-06-04T00:20:47;11.60;95.10
1644;DHT22;46825;51.99869940;8.49421771;2023-06-04T00:22:49;11.70;95.40
1644;DHT22;46825;51.99869940;8.49421771;2023-06-04T00:23:49;11.70;95.30
1644;DHT22;46825;51.99869940;8.49421771;2023-06-04T00:24:50;11.70;95.60
1644;DHT22;46825;51.99869940;8.49421771;2023-06-04T00:25:50;11.70;95.60
1644;DHT22;46825;51.99869940;8.49421771;2023-06-04T00:26:51;11.70;95.60
1644;DHT22;46825;51.99869940;8.49421771;2023-06-04T00:27:52;11.70;95.40
1644;DHT22;46825;51.99869940;8.49421771;2023-06-04T00:28:54;11.70;95.70
1644;DHT22;46825;51.99869940;8.49421771;2023-06-04T00:30:56;11.70;95.70
1644;DHT22;46825;51.99869940;8.49421771;2023-06-04T00:31:56;11.70;95.70
1644;DHT22;46825;51.99869940;8.49421771;2023-06-04T00:33:58;11.80;95.40
1644;DHT22;46825;51.99869940;8.49421771;2023-06-04T00:34:58;11.80;95.10
1644;DHT22;46825;51.99869940;8.49421771;2023-06-04T00:38:04;12.00;95.40
1644;DHT22;46825;51.99869940;8.49421771;2023-06-04T00:39:04;12.00;95.50
1644;DHT22;46825;51.99869940;8.49421771;2023-06-04T00:40:06;11.90;96.00
1644;DHT22;46825;51.99869940;8.49421771;2023-06-04T00:41:06;11.90;95.90
1644;DHT22;46825;51.99869940;8.49421771;2023-06-04T00:42:07;11.80;96.00
1644;DHT22;46825;51.99869940;8.49421771;2023-06-04T00:43:07;11.80;96.00
1644;DHT22;46825;51.99869940;8.49421771;2023-06-04T00:44:08;11.80;95.70
1644;DHT22;46825;51.99869940;8.49421771;2023-06-04T00:45:09;11.80;96.00
1644;DHT22;46825;51.99869940;8.49421771;2023-06-04T00:46:10;11.90;95.40
1644;DHT22;46825;51.99869940;8.49421771;2023-06-04T00:47:20;11.90;95.40
1644;DHT22;46825;51.99869940;8.49421771;2023-06-04T00:50:24;12.00;95.60
1644;DHT22;46825;51.99869940;8.49421771;2023-06-04T00:51:25;11.90;95.70
1644;DHT22;46825;51.99869940;8.49421771;2023-06-04T00:52:26;11.90;95.70
1644;DHT22;46825;51.99869940;8.49421771;2023-06-04T00:53:27;11.90;95.40
1644;DHT22;46825;51.99869940;8.49421771;2023-06-04T00:54:27;11.90;95.50
1644;DHT22;46825;51.99869940;8.49421771;2023-06-04T00:55:29;11.90;95.70
1644;DHT22;46825;51.99869940;8.49421771;2023-06-04T00:56:30;11.90;95.50
1644;DHT22;46825;51.99869940;8.49421771;2023-06-04T00:58:37;11.90;95.80
1644;DHT22;46825;51.99869940;8.49421771;2023-06-04T00:59:39;11.90;96.00
1644;DHT22;46825;51.99869940;8.49421771;2023-06-04T01:00:42;11.90;96.20
1644;DHT22;46825;51.99869940;8.49421771;2023-06-04T01:02:02;11.80;96.30
1644;DHT22;46825;51.99869940;8.49421771;2023-06-04T01:03:07;11.80;96.40
1644;DHT22;46825;51.99869940;8.49421771;2023-06-04T01:06:49;11.80;96.70
1644;DHT22;46825;51.99869940;8.49421771;2023-06-04T01:09:55;11.70;96.90
1644;DHT22;46825;51.99869940;8.49421771;2023-06-04T01:10:56;11.70;97.60
1644;DHT22;46825;51.99869940;8.49421771;2023-06-04T01:14:00;11.60;97.90
1644;DHT22;46825;51.99869940;8.49421771;2023-06-04T01:15:00;11.60;98.10
1644;DHT22;46825;51.99869940;8.49421771;2023-06-04T01:20:44;11.40;98.80
1644;DHT22;46825;51.99869940;8.49421771;2023-06-04T01:21:49;11.40;98.80
1644;DHT22;46825;51.99869940;8.49421771;2023-06-04T01:23:52;11.40;99.30
1644;DHT22;46825;51.99869940;8.49421771;2023-06-04T01:26:06;11.30;99.90
1644;DHT22;46825;51.99869940;8.49421771;2023-06-04T01:28:10;11.20;99.90
1644;DHT22;46825;51.99869940;8.49421771;2023-06-04T01:30:17;11.30;99.90
1644;DHT22;46825;51.99869940;8.49421771;2023-06-04T01:31:18;11.30;99.90
1644;DHT22;46825;51.99869940;8.49421771;2023-06-04T01:32:23;11.20;99.90
1644;DHT22;46825;51.99869940;8.49421771;2023-06-04T01:33:24;11.20;99.90
1644;DHT22;46825;51.99869940;8.49421771;2023-06-04T01:35:27;11.20;99.90
1644;DHT22;46825;51.99869940;8.49421771;2023-06-04T01:36:28;11.20;99.90
1644;DHT22;46825;51.99869940;8.49421771;2023-06-04T01:39:30;11.20;99.90
1644;DHT22;46825;51.99869940;8.49421771;2023-06-04T01:40:31;11.20;99.90
1644;DHT22;46825;51.99869940;8.49421771;2023-06-04T01:41:32;11.20;99.90
1644;DHT22;46825;51.99869940;8.49421771;2023-06-04T01:42:32;11.20;99.90
1644;DHT22;46825;51.99869940;8.49421771;2023-06-04T01:43:33;11.20;99.90
1644;DHT22;46825;51.99869940;8.49421771;2023-06-04T01:44:37;11.20;99.90
1644;DHT22;46825;51.99869940;8.49421771;2023-06-04T01:45:37;11.20;99.90
1644;DHT22;46825;51.99869940;8.49421771;2023-06-04T01:46:38;11.20;99.90
1644;DHT22;46825;51.99869940;8.49421771;2023-06-04T01:47:38;11.10;99.90
1644;DHT22;46825;51.99869940;8.49421771;2023-06-04T01:48:39;11.20;99.90
1644;DHT22;46825;51.99869940;8.49421771;2023-06-04T01:49:41;11.20;99.90
1644;DHT22;46825;51.99869940;8.49421771;2023-06-04T01:50:41;11.10;99.90
1644;DHT22;46825;51.99869940;8.49421771;2023-06-04T01:51:42;11.10;99.90
1644;DHT22;46825;51.99869940;8.49421771;2023-06-04T01:53:43;11.20;99.90
1644;DHT22;46825;51.99869940;8.49421771;2023-06-04T01:54:44;11.20;99.90
1644;DHT22;46825;51.99869940;8.49421771;2023-06-04T01:58:51;11.20;99.90
1644;DHT22;46825;51.99869940;8.49421771;2023-06-04T01:59:52;11.20;99.90
1644;DHT22;46825;51.99869940;8.49421771;2023-06-04T02:01:55;11.10;99.90
1644;DHT22;46825;51.99869940;8.49421771;2023-06-04T02:02:56;11.10;99.90
1644;DHT22;46825;51.99869940;8.49421771;2023-06-04T02:03:56;11.10;99.90
1644;DHT22;46825;51.99869940;8.49421771;2023-06-04T02:06:59;11.10;99.90
1644;DHT22;46825;51.99869940;8.49421771;2023-06-04T02:10:11;11.10;99.90
1644;DHT22;46825;51.99869940;8.49421771;2023-06-04T02:12:13;11.00;99.90
1644;DHT22;46825;51.99869940;8.49421771;2023-06-04T02:14:15;11.00;99.90
1644;DHT22;46825;51.99869940;8.49421771;2023-06-04T02:15:15;10.90;99.90
1644;DHT22;46825;51.99869940;8.49421771;2023-06-04T02:16:16;10.90;99.90
1644;DHT22;46825;51.99869940;8.49421771;2023-06-04T02:17:16;10.90;99.90
1644;DHT22;46825;51.99869940;8.49421771;2023-06-04T02:20:22;10.90;99.90
1644;DHT22;46825;51.99869940;8.49421771;2023-06-04T02:21:22;10.80;99.90
1644;DHT22;46825;51.99869940;8.49421771;2023-06-04T02:22:24;10.80;99.90
1644;DHT22;46825;51.99869940;8.49421771;2023-06-04T02:23:26;10.80;99.90
1644;DHT22;46825;51.99869940;8.49421771;2023-06-04T02:24:27;10.70;99.90
1644;DHT22;46825;51.99869940;8.49421771;2023-06-04T02:25:27;10.80;99.90
1644;DHT22;46825;51.99869940;8.49421771;2023-06-04T02:26:28;10.70;99.90
1644;DHT22;46825;51.99869940;8.49421771;2023-06-04T02:28:29;10.80;99.90
1644;DHT22;46825;51.99869940;8.49421771;2023-06-04T02:29:30;10.80;99.90
1644;DHT22;46825;51.99869940;8.49421771;2023-06-04T02:30:31;10.70;99.90
1644;DHT22;46825;51.99869940;8.49421771;2023-06-04T02:31:31;10.70;99.90
1644;DHT22;46825;51.99869940;8.49421771;2023-06-04T02:32:32;10.70;99.90
1644;DHT22;46825;51.99869940;8.49421771;2023-06-04T02:33:33;10.70;99.90
1644;DHT22;46825;51.99869940;8.49421771;2023-06-04T02:34:36;10.70;99.90
1644;DHT22;46825;51.99869940;8.49421771;2023-06-04T02:35:37;10.70;99.90
1644;DHT22;46825;51.99869940;8.49421771;2023-06-04T02:36:38;10.70;99.90
1644;DHT22;46825;51.99869940;8.49421771;2023-06-04T02:38:39;10.70;99.90
1644;DHT22;46825;51.99869940;8.49421771;2023-06-04T02:39:40;10.70;99.90
1644;DHT22;46825;51.99869940;8.49421771;2023-06-04T02:41:43;10.60;99.90
1644;DHT22;46825;51.99869940;8.49421771;2023-06-04T02:42:43;10.60;99.90
1644;DHT22;46825;51.99869940;8.49421771;2023-06-04T02:43:44;10.60;99.90
1644;DHT22;46825;51.99869940;8.49421771;2023-06-04T02:44:45;10.60;99.90
1644;DHT22;46825;51.99869940;8.49421771;2023-06-04T02:45:46;10.60;99.90
1644;DHT22;46825;51.99869940;8.49421771;2023-06-04T02:46:46;10.60;99.90
1644;DHT22;46825;51.99869940;8.49421771;2023-06-04T02:47:47;10.60;99.90
1644;DHT22;46825;51.99869940;8.49421771;2023-06-04T02:50:50;10.60;99.90
1644;DHT22;46825;51.99869940;8.49421771;2023-06-04T02:51:51;10.50;99.90
1644;DHT22;46825;51.99869940;8.49421771;2023-06-04T02:52:51;10.50;99.90
1644;DHT22;46825;51.99869940;8.49421771;2023-06-04T02:53:52;10.60;99.90
1644;DHT22;46825;51.99869940;8.49421771;2023-06-04T02:54:53;10.50;99.90
1644;DHT22;46825;51.99869940;8.49421771;2023-06-04T02:55:53;10.50;99.90
1644;DHT22;46825;51.99869940;8.49421771;2023-06-04T02:56:54;10.50;99.90
1644;DHT22;46825;51.99869940;8.49421771;2023-06-04T02:58:56;10.50;99.90
1644;DHT22;46825;51.99869940;8.49421771;2023-06-04T02:59:57;10.50;99.90
1644;DHT22;46825;51.99869940;8.49421771;2023-06-04T03:00:58;10.50;99.90
1644;DHT22;46825;51.99869940;8.49421771;2023-06-04T03:01:58;10.50;99.90
1644;DHT22;46825;51.99869940;8.49421771;2023-06-04T03:02:59;10.50;99.90
1644;DHT22;46825;51.99869940;8.49421771;2023-06-04T03:04:02;10.50;99.90
1644;DHT22;46825;51.99869940;8.49421771;2023-06-04T03:06:13;10.40;99.90
1644;DHT22;46825;51.99869940;8.49421771;2023-06-04T03:08:16;10.40;99.90
1644;DHT22;46825;51.99869940;8.49421771;2023-06-04T03:09:16;10.50;99.90
1644;DHT22;46825;51.99869940;8.49421771;2023-06-04T03:10:17;10.50;99.90
1644;DHT22;46825;51.99869940;8.49421771;2023-06-04T03:13:22;10.40;99.90
1644;DHT22;46825;51.99869940;8.49421771;2023-06-04T03:14:22;10.40;99.90
1644;DHT22;46825;51.99869940;8.49421771;2023-06-04T03:15:23;10.40;99.90
1644;DHT22;46825;51.99869940;8.49421771;2023-06-04T03:17:26;10.30;99.90
1644;DHT22;46825;51.99869940;8.49421771;2023-06-04T03:19:28;10.40;99.90
1644;DHT22;46825;51.99869940;8.49421771;2023-06-04T03:20:28;10.40;99.90
1644;DHT22;46825;51.99869940;8.49421771;2023-06-04T03:21:29;10.40;99.90
1644;DHT22;46825;51.99869940;8.49421771;2023-06-04T03:22:30;10.40;99.90
1644;DHT22;46825;51.99869940;8.49421771;2023-06-04T03:23:31;10.40;99.90
1644;DHT22;46825;51.99869940;8.49421771;2023-06-04T03:24:38;10.40;99.90
1644;DHT22;46825;51.99869940;8.49421771;2023-06-04T03:25:39;10.40;99.90
1644;DHT22;46825;51.99869940;8.49421771;2023-06-04T03:26:39;10.40;99.90
1644;DHT22;46825;51.99869940;8.49421771;2023-06-04T03:27:41;10.40;99.90
1644;DHT22;46825;51.99869940;8.49421771;2023-06-04T03:28:41;10.30;99.90
1644;DHT22;46825;51.99869940;8.49421771;2023-06-04T03:29:42;10.30;99.90
1644;DHT22;46825;51.99869940;8.49421771;2023-06-04T03:32:47;10.30;99.90
1644;DHT22;46825;51.99869940;8.49421771;2023-06-04T03:33:48;10.30;99.90
1644;DHT22;46825;51.99869940;8.49421771;2023-06-04T03:34:48;10.30;99.90
1644;DHT22;46825;51.99869940;8.49421771;2023-06-04T03:35:50;10.30;99.90
1644;DHT22;46825;51.99869940;8.49421771;2023-06-04T03:36:53;10.40;99.90
1644;DHT22;46825;51.99869940;8.49421771;2023-06-04T03:39:56;10.40;99.90
1644;DHT22;46825;51.99869940;8.49421771;2023-06-04T03:40:57;10.30;99.90
1644;DHT22;46825;51.99869940;8.49421771;2023-06-04T03:41:57;10.30;99.90
1644;DHT22;46825;51.99869940;8.49421771;2023-06-04T03:42:58;10.30;99.90
1644;DHT22;46825;51.99869940;8.49421771;2023-06-04T03:43:59;10.30;99.90
1644;DHT22;46825;51.99869940;8.49421771;2023-06-04T03:44:59;10.30;99.90
1644;DHT22;46825;51.99869940;8.49421771;2023-06-04T03:47:01;10.40;99.90
1644;DHT22;46825;51.99869940;8.49421771;2023-06-04T03:49:02;10.40;99.90
1644;DHT22;46825;51.99869940;8.49421771;2023-06-04T03:50:03;10.40;99.90
1644;DHT22;46825;51.99869940;8.49421771;2023-06-04T03:51:04;10.40;99.90
1644;DHT22;46825;51.99869940;8.49421771;2023-06-04T03:52:05;10.40;99.90
1644;DHT22;46825;51.99869940;8.49421771;2023-06-04T03:54:07;10.40;99.90
1644;DHT22;46825;51.99869940;8.49421771;2023-06-04T03:55:08;10.40;99.90
1644;DHT22;46825;51.99869940;8.49421771;2023-06-04T03:57:09;10.50;99.90
1644;DHT22;46825;51.99869940;8.49421771;2023-06-04T03:58:10;10.50;99.90
1644;DHT22;46825;51.99869940;8.49421771;2023-06-04T03:59:12;10.50;99.90
1644;DHT22;46825;51.99869940;8.49421771;2023-06-04T04:00:14;10.50;99.90
1644;DHT22;46825;51.99869940;8.49421771;2023-06-04T04:01:15;10.50;99.90
1644;DHT22;46825;51.99869940;8.49421771;2023-06-04T04:03:19;10.50;99.90
1644;DHT22;46825;51.99869940;8.49421771;2023-06-04T04:05:21;10.50;99.90
1644;DHT22;46825;51.99869940;8.49421771;2023-06-04T04:06:22;10.50;99.90
1644;DHT22;46825;51.99869940;8.49421771;2023-06-04T04:07:23;10.50;99.90
1644;DHT22;46825;51.99869940;8.49421771;2023-06-04T04:08:24;10.60;99.90
1644;DHT22;46825;51.99869940;8.49421771;2023-06-04T04:09:26;10.60;99.90
1644;DHT22;46825;51.99869940;8.49421771;2023-06-04T04:10:26;10.50;99.90
1644;DHT22;46825;51.99869940;8.49421771;2023-06-04T04:11:27;10.50;99.90
1644;DHT22;46825;51.99869940;8.49421771;2023-06-04T04:12:27;10.70;99.90
1644;DHT22;46825;51.99869940;8.49421771;2023-06-04T04:13:28;10.60;99.90
1644;DHT22;46825;51.99869940;8.49421771;2023-06-04T04:14:28;10.60;99.90
1644;DHT22;46825;51.99869940;8.49421771;2023-06-04T04:15:29;10.60;99.90
1644;DHT22;46825;51.99869940;8.49421771;2023-06-04T04:16:30;10.60;99.90
1644;DHT22;46825;51.99869940;8.49421771;2023-06-04T04:19:36;10.70;99.90
1644;DHT22;46825;51.99869940;8.49421771;2023-06-04T04:20:37;10.80;99.90
1644;DHT22;46825;51.99869940;8.49421771;2023-06-04T04:21:37;10.80;99.90
1644;DHT22;46825;51.99869940;8.49421771;2023-06-04T04:22:41;10.80;99.90
1644;DHT22;46825;51.99869940;8.49421771;2023-06-04T04:24:43;10.80;99.90
1644;DHT22;46825;51.99869940;8.49421771;2023-06-04T04:25:44;10.90;99.90
1644;DHT22;46825;51.99869940;8.49421771;2023-06-04T04:27:46;10.90;99.90
1644;DHT22;46825;51.99869940;8.49421771;2023-06-04T04:28:48;10.90;99.90
1644;DHT22;46825;51.99869940;8.49421771;2023-06-04T04:29:50;10.90;99.90
1644;DHT22;46825;51.99869940;8.49421771;2023-06-04T04:30:50;11.00;99.90
1644;DHT22;46825;51.99869940;8.49421771;2023-06-04T04:31:51;11.00;99.90
1644;DHT22;46825;51.99869940;8.49421771;2023-06-04T04:32:52;11.00;99.90
1644;DHT22;46825;51.99869940;8.49421771;2023-06-04T04:34:56;11.10;99.90
1644;DHT22;46825;51.99869940;8.49421771;2023-06-04T04:35:58;11.20;99.90
1644;DHT22;46825;51.99869940;8.49421771;2023-06-04T04:36:59;11.20;99.90
1644;DHT22;46825;51.99869940;8.49421771;2023-06-04T04:39:04;11.20;99.90
1644;DHT22;46825;51.99869940;8.49421771;2023-06-04T04:40:08;11.30;99.90
1644;DHT22;46825;51.99869940;8.49421771;2023-06-04T04:41:12;11.30;99.90
1644;DHT22;46825;51.99869940;8.49421771;2023-06-04T04:43:14;11.30;99.90
1644;DHT22;46825;51.99869940;8.49421771;2023-06-04T04:44:14;11.30;99.90
1644;DHT22;46825;51.99869940;8.49421771;2023-06-04T04:45:15;11.30;99.90
1644;DHT22;46825;51.99869940;8.49421771;2023-06-04T04:46:17;11.30;99.90
1644;DHT22;46825;51.99869940;8.49421771;2023-06-04T04:48:19;11.40;99.90
1644;DHT22;46825;51.99869940;8.49421771;2023-06-04T04:49:19;11.40;99.90
1644;DHT22;46825;51.99869940;8.49421771;2023-06-04T04:50:20;11.40;99.90
1644;DHT22;46825;51.99869940;8.49421771;2023-06-04T04:51:21;11.50;99.90
1644;DHT22;46825;51.99869940;8.49421771;2023-06-04T04:52:22;11.50;99.90
1644;DHT22;46825;51.99869940;8.49421771;2023-06-04T04:53:23;11.60;99.90
1644;DHT22;46825;51.99869940;8.49421771;2023-06-04T04:58:27;11.70;99.90
1644;DHT22;46825;51.99869940;8.49421771;2023-06-04T04:59:28;11.70;99.90
1644;DHT22;46825;51.99869940;8.49421771;2023-06-04T05:00:29;11.70;99.90
1644;DHT22;46825;51.99869940;8.49421771;2023-06-04T05:01:30;11.80;99.90
1644;DHT22;46825;51.99869940;8.49421771;2023-06-04T05:02:31;11.70;99.90
1644;DHT22;46825;51.99869940;8.49421771;2023-06-04T05:04:32;11.80;99.90
1644;DHT22;46825;51.99869940;8.49421771;2023-06-04T05:05:33;11.90;99.90
1644;DHT22;46825;51.99869940;8.49421771;2023-06-04T05:06:34;11.90;99.90
1644;DHT22;46825;51.99869940;8.49421771;2023-06-04T05:08:35;12.00;99.90
1644;DHT22;46825;51.99869940;8.49421771;2023-06-04T05:09:36;12.00;99.90
1644;DHT22;46825;51.99869940;8.49421771;2023-06-04T05:10:36;12.00;99.90
1644;DHT22;46825;51.99869940;8.49421771;2023-06-04T05:11:37;12.00;99.90
1644;DHT22;46825;51.99869940;8.49421771;2023-06-04T05:12:38;12.00;99.90
1644;DHT22;46825;51.99869940;8.49421771;2023-06-04T05:14:41;12.00;99.90
1644;DHT22;46825;51.99869940;8.49421771;2023-06-04T05:15:42;12.10;99.90
1644;DHT22;46825;51.99869940;8.49421771;2023-06-04T05:16:42;12.10;99.90
1644;DHT22;46825;51.99869940;8.49421771;2023-06-04T05:18:47;12.10;99.90
1644;DHT22;46825;51.99869940;8.49421771;2023-06-04T05:19:47;12.20;99.90
1644;DHT22;46825;51.99869940;8.49421771;2023-06-04T05:20:50;12.20;99.90
1644;DHT22;46825;51.99869940;8.49421771;2023-06-04T05:21:51;12.10;99.90
1644;DHT22;46825;51.99869940;8.49421771;2023-06-04T05:22:51;12.20;99.90
1644;DHT22;46825;51.99869940;8.49421771;2023-06-04T05:23:52;12.20;99.90
1644;DHT22;46825;51.99869940;8.49421771;2023-06-04T05:24:53;12.30;99.90
1644;DHT22;46825;51.99869940;8.49421771;2023-06-04T05:25:53;12.30;99.90
1644;DHT22;46825;51.99869940;8.49421771;2023-06-04T05:26:57;12.40;99.90
1644;DHT22;46825;51.99869940;8.49421771;2023-06-04T05:28:59;12.50;99.90
1644;DHT22;46825;51.99869940;8.49421771;2023-06-04T05:31:01;12.50;99.90
1644;DHT22;46825;51.99869940;8.49421771;2023-06-04T05:33:04;12.40;99.90
1644;DHT22;46825;51.99869940;8.49421771;2023-06-04T05:34:06;12.40;99.90
1644;DHT22;46825;51.99869940;8.49421771;2023-06-04T05:36:08;12.40;99.90
1644;DHT22;46825;51.99869940;8.49421771;2023-06-04T05:37:08;12.40;99.90
1644;DHT22;46825;51.99869940;8.49421771;2023-06-04T05:38:09;12.50;99.90
1644;DHT22;46825;51.99869940;8.49421771;2023-06-04T05:40:11;12.40;99.90
1644;DHT22;46825;51.99869940;8.49421771;2023-06-04T05:41:12;12.50;99.90
1644;DHT22;46825;51.99869940;8.49421771;2023-06-04T05:42:13;12.50;99.90
1644;DHT22;46825;51.99869940;8.49421771;2023-06-04T05:43:15;12.50;99.90
1644;DHT22;46825;51.99869940;8.49421771;2023-06-04T05:44:16;12.50;99.90
1644;DHT22;46825;51.99869940;8.49421771;2023-06-04T05:45:16;12.60;99.90
1644;DHT22;46825;51.99869940;8.49421771;2023-06-04T05:46:17;12.60;99.90
1644;DHT22;46825;51.99869940;8.49421771;2023-06-04T05:48:19;12.60;99.90
1644;DHT22;46825;51.99869940;8.49421771;2023-06-04T05:49:19;12.70;99.90
1644;DHT22;46825;51.99869940;8.49421771;2023-06-04T05:50:20;12.70;99.90
1644;DHT22;46825;51.99869940;8.49421771;2023-06-04T05:51:21;12.70;99.90
1644;DHT22;46825;51.99869940;8.49421771;2023-06-04T05:52:21;12.70;99.90
1644;DHT22;46825;51.99869940;8.49421771;2023-06-04T05:54:23;12.80;99.90
1644;DHT22;46825;51.99869940;8.49421771;2023-06-04T06:01:31;13.00;99.90
1644;DHT22;46825;51.99869940;8.49421771;2023-06-04T06:02:32;13.00;99.90
1644;DHT22;46825;51.99869940;8.49421771;2023-06-04T06:03:33;13.00;99.90
1644;DHT22;46825;51.99869940;8.49421771;2023-06-04T06:05:34;13.10;99.90
1644;DHT22;46825;51.99869940;8.49421771;2023-06-04T06:06:35;13.10;99.90
1644;DHT22;46825;51.99869940;8.49421771;2023-06-04T06:09:38;13.10;99.90
1644;DHT22;46825;51.99869940;8.49421771;2023-06-04T06:10:38;13.10;99.90
1644;DHT22;46825;51.99869940;8.49421771;2023-06-04T06:11:39;13.10;99.90
1644;DHT22;46825;51.99869940;8.49421771;2023-06-04T06:15:42;13.30;99.90
1644;DHT22;46825;51.99869940;8.49421771;2023-06-04T06:16:43;13.40;99.90
1644;DHT22;46825;51.99869940;8.49421771;2023-06-04T06:18:45;13.50;99.90
1644;DHT22;46825;51.99869940;8.49421771;2023-06-04T06:19:45;13.50;99.90
1644;DHT22;46825;51.99869940;8.49421771;2023-06-04T06:20:46;13.50;99.90
1644;DHT22;46825;51.99869940;8.49421771;2023-06-04T06:21:47;13.50;99.90
1644;DHT22;46825;51.99869940;8.49421771;2023-06-04T06:22:47;13.50;99.90
1644;DHT22;46825;51.99869940;8.49421771;2023-06-04T06:23:48;13.40;99.90
1644;DHT22;46825;51.99869940;8.49421771;2023-06-04T06:24:49;13.40;99.90
1644;DHT22;46825;51.99869940;8.49421771;2023-06-04T06:25:49;13.40;99.90
1644;DHT22;46825;51.99869940;8.49421771;2023-06-04T06:26:52;13.50;99.90
1644;DHT22;46825;51.99869940;8.49421771;2023-06-04T06:30:56;13.60;99.90
1644;DHT22;46825;51.99869940;8.49421771;2023-06-04T06:31:56;13.60;99.90
1644;DHT22;46825;51.99869940;8.49421771;2023-06-04T06:32:57;13.70;99.90
1644;DHT22;46825;51.99869940;8.49421771;2023-06-04T06:33:57;13.70;99.90
1644;DHT22;46825;51.99869940;8.49421771;2023-06-04T06:34:58;13.70;99.90
1644;DHT22;46825;51.99869940;8.49421771;2023-06-04T06:37:03;13.90;99.90
1644;DHT22;46825;51.99869940;8.49421771;2023-06-04T06:42:08;14.20;99.60
1644;DHT22;46825;51.99869940;8.49421771;2023-06-04T06:44:10;14.20;99.00
1644;DHT22;46825;51.99869940;8.49421771;2023-06-04T06:47:12;14.40;99.20
1644;DHT22;46825;51.99869940;8.49421771;2023-06-04T06:49:18;14.50;98.70
1644;DHT22;46825;51.99869940;8.49421771;2023-06-04T06:50:19;14.60;98.90
1644;DHT22;46825;51.99869940;8.49421771;2023-06-04T06:51:19;14.70;98.90
1644;DHT22;46825;51.99869940;8.49421771;2023-06-04T06:52:20;14.60;98.20
1644;DHT22;46825;51.99869940;8.49421771;2023-06-04T06:53:21;14.70;98.30
1644;DHT22;46825;51.99869940;8.49421771;2023-06-04T06:54:22;14.70;98.70
1644;DHT22;46825;51.99869940;8.49421771;2023-06-04T06:55:22;14.80;99.00
1644;DHT22;46825;51.99869940;8.49421771;2023-06-04T06:56:23;14.80;98.20
1644;DHT22;46825;51.99869940;8.49421771;2023-06-04T06:57:24;14.80;98.00
1644;DHT22;46825;51.99869940;8.49421771;2023-06-04T06:58:24;14.90;97.90
1644;DHT22;46825;51.99869940;8.49421771;2023-06-04T06:59:25;14.90;97.90
1644;DHT22;46825;51.99869940;8.49421771;2023-06-04T07:01:30;15.00;97.60
1644;DHT22;46825;51.99869940;8.49421771;2023-06-04T07:02:32;15.10;96.90
1644;DHT22;46825;51.99869940;8.49421771;2023-06-04T07:03:33;15.00;96.30
1644;DHT22;46825;51.99869940;8.49421771;2023-06-04T07:04:34;15.20;96.60
1644;DHT22;46825;51.99869940;8.49421771;2023-06-04T07:05:34;15.20;96.30
1644;DHT22;46825;51.99869940;8.49421771;2023-06-04T07:06:35;15.20;96.10
1644;DHT22;46825;51.99869940;8.49421771;2023-06-04T07:08:38;15.30;94.50
1644;DHT22;46825;51.99869940;8.49421771;2023-06-04T07:09:39;15.30;94.00
1644;DHT22;46825;51.99869940;8.49421771;2023-06-04T07:10:39;15.30;94.10
1644;DHT22;46825;51.99869940;8.49421771;2023-06-04T07:11:41;15.30;94.60
1644;DHT22;46825;51.99869940;8.49421771;2023-06-04T07:12:41;15.30;94.50
1644;DHT22;46825;51.99869940;8.49421771;2023-06-04T07:13:42;15.40;94.50
1644;DHT22;46825;51.99869940;8.49421771;2023-06-04T07:14:43;15.30;94.50
1644;DHT22;46825;51.99869940;8.49421771;2023-06-04T07:15:43;15.40;94.30
1644;DHT22;46825;51.99869940;8.49421771;2023-06-04T07:16:44;15.40;94.70
1644;DHT22;46825;51.99869940;8.49421771;2023-06-04T07:17:44;15.60;94.50
1644;DHT22;46825;51.99869940;8.49421771;2023-06-04T07:19:49;15.60;93.70
1644;DHT22;46825;51.99869940;8.49421771;2023-06-04T07:20:50;15.60;93.80
1644;DHT22;46825;51.99869940;8.49421771;2023-06-04T07:21:54;15.60;93.80
1644;DHT22;46825;51.99869940;8.49421771;2023-06-04T07:23:55;15.70;94.00
1644;DHT22;46825;51.99869940;8.49421771;2023-06-04T07:24:56;15.70;93.80
1644;DHT22;46825;51.99869940;8.49421771;2023-06-04T07:25:57;15.80;93.70
1644;DHT22;46825;51.99869940;8.49421771;2023-06-04T07:28:59;15.80;93.90
1644;DHT22;46825;51.99869940;8.49421771;2023-06-04T07:30:00;15.90;92.70
1644;DHT22;46825;51.99869940;8.49421771;2023-06-04T07:32:02;15.80;92.40
1644;DHT22;46825;51.99869940;8.49421771;2023-06-04T07:33:02;15.90;92.60
1644;DHT22;46825;51.99869940;8.49421771;2023-06-04T07:34:03;15.90;92.60
1644;DHT22;46825;51.99869940;8.49421771;2023-06-04T07:35:04;15.80;92.60
1644;DHT22;46825;51.99869940;8.49421771;2023-06-04T07:36:04;15.90;92.50
1644;DHT22;46825;51.99869940;8.49421771;2023-06-04T07:38:06;15.90;92.30
1644;DHT22;46825;51.99869940;8.49421771;2023-06-04T07:39:07;16.00;92.30
1644;DHT22;46825;51.99869940;8.49421771;2023-06-04T07:40:08;16.00;92.30
1644;DHT22;46825;51.99869940;8.49421771;2023-06-04T07:41:09;16.10;92.10
1644;DHT22;46825;51.99869940;8.49421771;2023-06-04T07:42:10;16.10;91.90